Terminal Aerodrome Forecast
Issued by NWS

Current Version | Previous Version | Text Only | Print | Product List | Glossary Off
Versions: 1 2 3 4 5 6 7 8 9 10 11 12 13 14 15 16 17 18 19 20 21

396
FTUS41 KRLX 251120
TAFCKB
TAF
KCKB 251120Z 2512/2612 18003KT P6SM -SHRA BKN040 BKN060
      TEMPO 2512/2513 5SM SHRA BKN035
     FM251500 21007KT P6SM BKN050
     FM251800 23008KT P6SM SCT050
     FM260100 21002KT P6SM SCT070
     FM260800 00000KT 5SM BR SCT080=

USA.gov is the U.S. government's official web portal to all federal, state and local government web resources and services.